Time;durP1;ratioP1;P1;durP2;ratioP2;P2;SDS_P1;SDS_P2;PMS_P1;PMS_P2;Temp;Humidity;BMP_temperature;BMP_pressure;BME280_temperature;BME280_humidity;BME280_pressure;Samples;Min_cycle;Max_cycle;Signal;HPM_P1;HPM_P2
2020/12/22 00:01:18;;;;;;;0.15;0.15;;;10.80;83.00;;;;;;5032836;28;20470;-74
2020/12/22 00:03:44;;;;;;;0.13;0.13;;;10.80;83.10;;;;;;5033122;28;20044;-74
2020/12/22 00:06:20;;;;;;;0.13;0.13;;;10.90;83.30;;;;;;5032951;28;20022;-74
2020/12/22 00:08:46;;;;;;;0.10;0.10;;;10.80;83.30;;;;;;5032969;28;20040;-74
2020/12/22 00:11:11;;;;;;;0.47;0.15;;;10.80;83.40;;;;;;5032900;28;20022;-75
2020/12/22 00:13:37;;;;;;;0.35;0.28;;;10.90;83.20;;;;;;5032952;28;20025;-74
2020/12/22 00:16:02;;;;;;;0.20;0.10;;;10.90;83.00;;;;;;5032715;28;20209;-74
2020/12/22 00:18:28;;;;;;;0.90;0.10;;;10.90;82.90;;;;;;5032893;28;20057;-74
2020/12/22 00:20:53;;;;;;;0.55;0.00;;;10.90;82.90;;;;;;5032823;28;20033;-74
2020/12/22 00:23:19;;;;;;;0.90;0.10;;;11.00;83.00;;;;;;5015047;28;20100;-74
2020/12/22 00:25:47;;;;;;;0.15;0.13;;;11.00;83.00;;;;;;5032799;28;20024;-74
2020/12/22 00:28:14;;;;;;;1.30;0.10;;;11.00;82.80;;;;;;5032727;28;20036;-74
2020/12/22 00:30:40;;;;;;;0.45;0.17;;;11.00;82.80;;;;;;5032741;28;20067;-74
2020/12/22 00:33:06;;;;;;;0.30;0.20;;;11.00;82.80;;;;;;5032771;28;20420;-74
2020/12/22 00:35:32;;;;;;;0.47;0.10;;;11.00;82.80;;;;;;5032643;28;20466;-74
2020/12/22 00:37:58;;;;;;;0.22;0.20;;;11.00;83.00;;;;;;5032606;28;20040;-74
2020/12/22 00:40:24;;;;;;;0.10;0.10;;;11.10;83.10;;;;;;5032652;28;20100;-74
2020/12/22 00:42:51;;;;;;;0.80;0.30;;;11.10;83.40;;;;;;5032455;28;20616;-75
2020/12/22 00:45:17;;;;;;;0.28;0.28;;;11.10;83.30;;;;;;5032626;28;20481;-75
2020/12/22 00:47:43;;;;;;;0.38;0.28;;;11.10;83.40;;;;;;5032414;28;20120;-74
2020/12/22 00:50:08;;;;;;;0.20;0.20;;;11.00;83.40;;;;;;5035739;28;20456;-75
2020/12/22 00:52:34;;;;;;;0.20;0.17;;;11.00;83.60;;;;;;5036287;28;20021;-73
2020/12/22 00:54:59;;;;;;;0.20;0.10;;;11.10;83.50;;;;;;5036138;28;20033;-76
2020/12/22 00:57:25;;;;;;;2.28;0.25;;;11.00;83.40;;;;;;5036273;28;20057;-75
2020/12/22 00:59:50;;;;;;;0.10;0.10;;;11.00;83.50;;;;;;5036086;28;20386;-76
2020/12/22 01:02:16;;;;;;;0.43;0.30;;;11.00;83.80;;;;;;5018041;28;20496;-75
2020/12/22 01:04:41;;;;;;;0.35;0.10;;;11.00;84.00;;;;;;5018141;28;20093;-75
2020/12/22 01:07:07;;;;;;;0.20;0.10;;;11.00;83.90;;;;;;5035901;28;20029;-75
2020/12/22 01:09:33;;;;;;;0.20;0.10;;;10.90;84.00;;;;;;5035863;28;20025;-78
2020/12/22 01:11:58;;;;;;;0.30;0.20;;;11.00;83.80;;;;;;5035826;28;20429;-75
2020/12/22 01:14:24;;;;;;;0.20;0.00;;;11.00;83.70;;;;;;5035932;28;20026;-77
2020/12/22 01:16:49;;;;;;;0.10;0.10;;;11.10;83.70;;;;;;5036020;28;20409;-75
2020/12/22 01:19:15;;;;;;;0.30;0.10;;;11.10;83.60;;;;;;5035774;28;20041;-77
2020/12/22 01:21:40;;;;;;;0.57;0.10;;;11.10;83.60;;;;;;5017915;28;20438;-76
2020/12/22 01:24:06;;;;;;;0.00;0.00;;;11.10;83.50;;;;;;5035568;28;20112;-75
2020/12/22 01:26:32;;;;;;;0.75;0.08;;;11.10;83.30;;;;;;5035650;28;20118;-74
2020/12/22 01:28:58;;;;;;;0.20;0.20;;;11.10;83.40;;;;;;5035511;28;20070;-74
2020/12/22 01:31:26;;;;;;;0.55;0.10;;;11.10;83.40;;;;;;5035390;28;20025;-79
2020/12/22 01:33:52;;;;;;;0.10;0.10;;;11.20;83.10;;;;;;5035489;28;20466;-75
2020/12/22 01:36:18;;;;;;;0.57;0.17;;;11.10;83.50;;;;;;5035454;28;20076;-75
2020/12/22 01:38:45;;;;;;;0.32;0.32;;;11.10;83.70;;;;;;5035241;28;20100;-74
2020/12/22 01:41:12;;;;;;;0.15;0.10;;;11.10;83.50;;;;;;5035382;28;20120;-77
2020/12/22 01:43:38;;;;;;;0.20;0.20;;;11.20;83.10;;;;;;5035270;28;20033;-74
2020/12/22 01:46:05;;;;;;;0.28;0.22;;;11.20;82.90;;;;;;5035308;28;20539;-74
2020/12/22 01:48:31;;;;;;;0.10;0.10;;;11.10;82.80;;;;;;5035124;28;20029;-75
2020/12/22 01:50:57;;;;;;;0.20;0.10;;;11.10;82.80;;;;;;5035188;28;20028;-74
2020/12/22 01:53:23;;;;;;;0.20;0.20;;;11.20;82.60;;;;;;5035144;28;20029;-74
2020/12/22 01:55:49;;;;;;;0.10;0.10;;;11.20;82.20;;;;;;5035013;28;20025;-75
2020/12/22 01:58:15;;;;;;;0.10;0.10;;;11.20;82.00;;;;;;5035194;28;20029;-77
2020/12/22 02:00:42;;;;;;;1.30;0.10;;;11.20;81.80;;;;;;5034671;28;20079;-74
2020/12/22 02:03:08;;;;;;;0.10;0.10;;;11.20;81.50;;;;;;5034777;28;20049;-74
2020/12/22 02:05:36;;;;;;;0.10;0.10;;;11.30;81.50;;;;;;5034884;28;20079;-74
2020/12/22 02:08:02;;;;;;;0.15;0.10;;;11.30;81.10;;;;;;5034857;28;20033;-74
2020/12/22 02:10:28;;;;;;;0.20;0.00;;;11.40;80.50;;;;;;5034912;28;20389;-74
2020/12/22 02:12:53;;;;;;;0.20;0.20;;;11.40;80.20;;;;;;5034788;28;20018;-75
2020/12/22 02:15:19;;;;;;;0.00;0.00;;;11.40;79.80;;;;;;5016981;28;20470;-74
2020/12/22 02:17:45;;;;;;;0.60;0.20;;;11.50;79.50;;;;;;5034742;28;20090;-74
2020/12/22 02:20:12;;;;;;;0.00;0.00;;;11.50;79.00;;;;;;5034649;28;20021;-74
2020/12/22 02:22:38;;;;;;;0.08;0.08;;;11.50;78.70;;;;;;5034578;28;20033;-73
2020/12/22 02:25:11;;;;;;;0.10;0.00;;;11.50;78.50;;;;;;5034544;28;20381;-73
2020/12/22 02:27:36;;;;;;;0.17;0.10;;;11.50;78.30;;;;;;5016791;28;20022;-74
2020/12/22 02:30:04;;;;;;;0.00;0.00;;;11.50;78.40;;;;;;5034345;28;20512;-74
2020/12/22 02:32:30;;;;;;;0.13;0.08;;;11.50;78.50;;;;;;5034364;28;20048;-74
2020/12/22 02:34:55;;;;;;;0.20;0.00;;;11.50;78.20;;;;;;5034430;28;20478;-73
2020/12/22 02:37:21;;;;;;;0.00;0.00;;;11.60;78.00;;;;;;5034283;28;20029;-73
2020/12/22 02:39:48;;;;;;;0.00;0.00;;;11.60;77.60;;;;;;5034324;28;20096;-74
2020/12/22 02:42:14;;;;;;;0.22;0.00;;;11.50;77.90;;;;;;5034337;28;20420;-74
2020/12/22 02:44:39;;;;;;;0.10;0.00;;;11.50;78.00;;;;;;5034164;28;20029;-74
2020/12/22 02:47:11;;;;;;;0.00;0.00;;;11.50;77.90;;;;;;5034168;28;20370;-73
2020/12/22 02:49:38;;;;;;;0.20;0.00;;;11.50;77.80;;;;;;5034010;28;20044;-73
2020/12/22 02:52:03;;;;;;;0.00;0.00;;;11.50;77.50;;;;;;5034042;28;20083;-74
2020/12/22 02:54:29;;;;;;;2.25;0.10;;;11.60;77.40;;;;;;5033896;28;20037;-76
2020/12/22 02:56:54;;;;;;;0.22;0.00;;;11.60;77.10;;;;;;5033873;28;20431;-74
2020/12/22 02:59:20;;;;;;;0.00;0.00;;;11.60;77.00;;;;;;5033942;28;20037;-76
2020/12/22 03:01:45;;;;;;;0.10;0.00;;;11.70;77.10;;;;;;5033636;28;20045;-74
2020/12/22 03:04:12;;;;;;;0.03;0.03;;;11.70;76.90;;;;;;5033755;28;20036;-73
2020/12/22 03:06:38;;;;;;;0.00;0.00;;;11.70;76.70;;;;;;5033780;28;20053;-74
2020/12/22 03:09:04;;;;;;;0.10;0.10;;;11.70;76.70;;;;;;5016037;28;20106;-74
2020/12/22 03:11:30;;;;;;;0.00;0.00;;;11.70;76.70;;;;;;5033134;28;20021;-74
2020/12/22 03:13:55;;;;;;;0.00;0.00;;;11.70;76.60;;;;;;5033594;28;20032;-75
2020/12/22 03:16:21;;;;;;;0.45;0.00;;;11.70;76.50;;;;;;5033504;28;20021;-74
2020/12/22 03:18:46;;;;;;;0.00;0.00;;;11.70;76.80;;;;;;5033504;28;20112;-76
2020/12/22 03:21:13;;;;;;;0.15;0.10;;;11.70;77.00;;;;;;5033493;28;20026;-73
2020/12/22 03:23:38;;;;;;;0.45;0.00;;;11.70;77.40;;;;;;5033360;28;20037;-73
2020/12/22 03:26:04;;;;;;;0.28;0.15;;;11.60;77.40;;;;;;5015656;28;20044;-73
2020/12/22 03:28:29;;;;;;;0.22;0.15;;;11.70;77.50;;;;;;5033383;28;20589;-73
2020/12/22 03:30:55;;;;;;;0.05;0.00;;;11.70;77.70;;;;;;5033333;28;20111;-73
2020/12/22 03:33:21;;;;;;;0.00;0.00;;;11.70;77.90;;;;;;5033343;28;20116;-74
2020/12/22 03:35:46;;;;;;;0.00;0.00;;;11.70;78.00;;;;;;5033192;28;20052;-74
2020/12/22 03:38:12;;;;;;;0.00;0.00;;;11.60;78.40;;;;;;5033207;28;20029;-73
2020/12/22 03:40:37;;;;;;;0.68;0.03;;;11.60;78.70;;;;;;5033066;28;20382;-74
2020/12/22 03:43:03;;;;;;;0.00;0.00;;;11.50;79.00;;;;;;5033078;28;20482;-71
2020/12/22 03:45:29;;;;;;;1.98;0.05;;;11.60;79.00;;;;;;5033022;28;20017;-72
2020/12/22 03:47:54;;;;;;;0.10;0.00;;;11.50;79.20;;;;;;5033071;28;20504;-73
2020/12/22 03:50:20;;;;;;;0.10;0.00;;;11.60;79.10;;;;;;5033039;28;20028;-74
2020/12/22 03:52:45;;;;;;;0.32;0.00;;;11.50;79.10;;;;;;5033048;28;20029;-72
2020/12/22 03:55:11;;;;;;;0.00;0.00;;;11.60;78.80;;;;;;5015398;28;20501;-72
2020/12/22 03:57:37;;;;;;;0.30;0.10;;;11.70;78.40;;;;;;5033136;28;20060;-72
2020/12/22 04:00:05;;;;;;;0.60;0.28;;;11.70;78.20;;;;;;5015188;28;20033;-73
2020/12/22 04:02:31;;;;;;;0.00;0.00;;;11.70;77.70;;;;;;5032825;28;20117;-73
2020/12/22 04:04:56;;;;;;;0.30;0.00;;;11.70;77.60;;;;;;5032979;28;20112;-73
2020/12/22 04:07:22;;;;;;;0.00;0.00;;;11.80;77.20;;;;;;5032937;28;20511;-72
2020/12/22 04:09:47;;;;;;;0.00;0.00;;;11.80;77.10;;;;;;5033083;28;20373;-72
2020/12/22 04:12:13;;;;;;;1.50;0.03;;;11.80;77.20;;;;;;5015274;28;20044;-73
2020/12/22 04:14:39;;;;;;;2.00;0.15;;;11.80;77.30;;;;;;5032887;28;20108;-73
2020/12/22 04:17:04;;;;;;;0.05;0.00;;;11.80;77.90;;;;;;5032979;28;20416;-73
2020/12/22 04:19:30;;;;;;;0.00;0.00;;;11.80;78.10;;;;;;5032897;28;20435;-73
2020/12/22 04:21:56;;;;;;;0.00;0.00;;;11.80;78.30;;;;;;5015042;28;20053;-73
2020/12/22 04:24:22;;;;;;;0.10;0.00;;;11.70;78.40;;;;;;5036957;28;20060;-73
2020/12/22 04:26:47;;;;;;;0.00;0.00;;;11.70;78.50;;;;;;5036755;28;20470;-73
2020/12/22 04:29:13;;;;;;;0.20;0.00;;;11.70;78.50;;;;;;5018915;28;20355;-72
2020/12/22 04:31:38;;;;;;;0.20;0.00;;;11.70;78.50;;;;;;5036718;28;20017;-73
2020/12/22 04:34:04;;;;;;;0.17;0.00;;;11.70;78.40;;;;;;5036635;28;20021;-73
2020/12/22 04:36:30;;;;;;;0.08;0.00;;;11.80;78.20;;;;;;5036664;28;20087;-72
2020/12/22 04:38:55;;;;;;;0.22;0.00;;;11.80;77.70;;;;;;5036613;28;20025;-73
2020/12/22 04:41:22;;;;;;;0.10;0.10;;;11.90;77.60;;;;;;5036617;28;20021;-73
2020/12/22 04:43:50;;;;;;;0.00;0.00;;;11.90;77.40;;;;;;5036498;28;20040;-74
2020/12/22 04:46:19;;;;;;;0.20;0.00;;;11.90;77.50;;;;;;5018762;28;20045;-73
2020/12/22 04:48:50;;;;;;;0.10;0.10;;;12.00;77.10;;;;;;5036453;28;20017;-73
2020/12/22 04:51:16;;;;;;;0.20;0.10;;;12.00;76.90;;;;;;5036309;28;20458;-73
2020/12/22 04:53:44;;;;;;;0.20;0.10;;;11.90;77.00;;;;;;5036220;28;20113;-73
2020/12/22 04:56:10;;;;;;;0.00;0.00;;;12.00;76.90;;;;;;5036304;28;20017;-74
2020/12/22 04:58:36;;;;;;;1.20;0.00;;;12.00;77.00;;;;;;5036275;28;20026;-74
2020/12/22 05:01:02;;;;;;;0.00;0.00;;;11.90;77.10;;;;;;5036205;28;20535;-73
2020/12/22 05:03:28;;;;;;;1.48;0.10;;;12.00;77.00;;;;;;5035966;28;20046;-73
2020/12/22 05:05:54;;;;;;;0.30;0.10;;;12.00;76.80;;;;;;5036019;28;20083;-74
2020/12/22 05:08:20;;;;;;;0.40;0.10;;;11.90;77.70;;;;;;5036133;28;20029;-73
2020/12/22 05:10:47;;;;;;;0.25;0.08;;;12.00;76.80;;;;;;5036050;28;20168;-74
2020/12/22 05:13:15;;;;;;;0.80;0.40;;;12.00;76.90;;;;;;5036010;28;20104;-73
2020/12/22 05:15:53;;;;;;;0.93;0.10;;;12.00;76.80;;;;;;5035907;28;20028;-72
2020/12/22 05:18:23;;;;;;;0.20;0.13;;;12.00;77.40;;;;;;5035921;28;20381;-73
2020/12/22 05:20:49;;;;;;;0.20;0.10;;;12.10;76.50;;;;;;5035831;28;20018;-73
2020/12/22 05:23:20;;;;;;;0.30;0.22;;;12.10;76.60;;;;;;5035691;28;20394;-73
2020/12/22 05:25:48;;;;;;;0.63;0.40;;;12.10;76.70;;;;;;5035835;28;20021;-73
2020/12/22 05:28:15;;;;;;;0.75;0.05;;;12.10;76.60;;;;;;5035500;28;20378;-73
2020/12/22 05:30:42;;;;;;;0.17;0.10;;;12.00;76.60;;;;;;5035501;28;20048;-72
2020/12/22 05:33:07;;;;;;;0.20;0.20;;;12.10;76.80;;;;;;5035569;28;20022;-72
2020/12/22 05:35:38;;;;;;;0.10;0.10;;;12.00;76.80;;;;;;5034995;28;20079;-72
2020/12/22 05:38:07;;;;;;;0.20;0.10;;;12.00;76.90;;;;;;5035509;28;20083;-72
2020/12/22 05:40:34;;;;;;;1.65;0.40;;;12.00;77.00;;;;;;5035435;28;20381;-73
2020/12/22 05:43:01;;;;;;;1.77;0.10;;;12.00;76.80;;;;;;5035314;28;20034;-75
2020/12/22 05:45:37;;;;;;;2.00;0.20;;;12.00;76.80;;;;;;5035327;28;20028;-72
2020/12/22 05:48:05;;;;;;;0.65;0.20;;;12.00;76.80;;;;;;5035111;28;20060;-72
2020/12/22 05:50:32;;;;;;;0.25;0.10;;;12.10;76.90;;;;;;5035067;28;20056;-73
2020/12/22 05:52:59;;;;;;;0.13;0.10;;;12.10;76.80;;;;;;5034984;28;20453;-73
2020/12/22 05:55:26;;;;;;;0.43;0.20;;;12.10;76.80;;;;;;5035107;28;20017;-73
2020/12/22 05:58:06;;;;;;;0.50;0.30;;;12.10;76.60;;;;;;5034892;28;20025;-74
2020/12/22 06:00:31;;;;;;;0.15;0.13;;;12.20;76.40;;;;;;5034999;28;20018;-74
2020/12/22 06:03:04;;;;;;;0.10;0.10;;;12.20;76.40;;;;;;5034580;28;20398;-74
2020/12/22 06:05:34;;;;;;;0.10;0.10;;;12.10;76.40;;;;;;5034835;28;20026;-74
2020/12/22 06:08:00;;;;;;;0.73;0.10;;;12.20;76.40;;;;;;5034758;28;20047;-74
2020/12/22 06:10:26;;;;;;;0.10;0.10;;;12.20;76.40;;;;;;5034762;28;20025;-74
2020/12/22 06:12:56;;;;;;;0.30;0.15;;;12.20;76.40;;;;;;5034511;28;20029;-74
2020/12/22 06:15:23;;;;;;;0.20;0.03;;;12.20;76.40;;;;;;5034726;28;20505;-74
2020/12/22 06:17:49;;;;;;;0.03;0.03;;;12.20;76.70;;;;;;5034284;28;20033;-74
2020/12/22 06:20:23;;;;;;;0.00;0.00;;;12.20;76.80;;;;;;5034487;28;20485;-75
2020/12/22 06:22:49;;;;;;;0.05;0.00;;;12.20;76.80;;;;;;5034304;28;20367;-73
2020/12/22 06:25:22;;;;;;;1.20;0.25;;;12.20;76.90;;;;;;5034114;28;20033;-74
2020/12/22 06:27:48;;;;;;;0.52;0.22;;;12.20;77.00;;;;;;5033998;28;20096;-74
2020/12/22 06:30:17;;;;;;;0.10;0.00;;;12.20;76.90;;;;;;5034089;28;20056;-74
2020/12/22 06:32:43;;;;;;;0.30;0.20;;;12.30;77.00;;;;;;5034030;28;20091;-73
2020/12/22 06:35:30;;;;;;;0.00;0.00;;;12.20;77.30;;;;;;5033977;28;20017;-73
2020/12/22 06:37:57;;;;;;;0.28;0.05;;;12.20;77.60;;;;;;5034050;28;20029;-72
2020/12/22 06:40:54;;;;;;;0.38;0.28;;;12.10;78.00;;;;;;5034102;28;20112;-75
2020/12/22 06:43:40;;;;;;;0.20;0.10;;;12.10;78.50;;;;;;5033922;28;20030;-75
2020/12/22 06:46:27;;;;;;;0.35;0.25;;;12.00;78.90;;;;;;5032810;28;20516;-72
2020/12/22 06:48:52;;;;;;;2.70;0.15;;;11.90;79.50;;;;;;5033817;28;20033;-74
2020/12/22 06:51:23;;;;;;;1.08;0.30;;;11.90;80.20;;;;;;5033739;28;20419;-74
2020/12/22 06:53:48;;;;;;;0.80;0.17;;;11.90;80.30;;;;;;5033621;28;20048;-74
2020/12/22 06:56:14;;;;;;;0.10;0.10;;;11.90;80.40;;;;;;5033715;28;20116;-75
2020/12/22 06:58:42;;;;;;;0.30;0.10;;;11.90;80.30;;;;;;5033660;28;20390;-74
2020/12/22 07:01:26;;;;;;;0.30;0.20;;;11.90;80.30;;;;;;5033562;28;20108;-74
2020/12/22 07:04:29;;;;;;;0.10;0.10;;;11.80;80.40;;;;;;5033405;28;20038;-74
2020/12/22 07:06:58;;;;;;;0.40;0.00;;;11.90;80.20;;;;;;5033400;28;20032;-74
2020/12/22 07:09:27;;;;;;;0.03;0.03;;;12.00;79.90;;;;;;5033603;28;20021;-74
2020/12/22 07:12:08;;;;;;;0.45;0.25;;;12.00;79.70;;;;;;5033406;28;20068;-73
2020/12/22 07:14:34;;;;;;;1.40;0.10;;;12.00;79.60;;;;;;5033586;28;20561;-74
2020/12/22 07:17:02;;;;;;;0.40;0.40;;;12.00;79.60;;;;;;5033645;28;20536;-73
2020/12/22 07:19:29;;;;;;;0.20;0.13;;;12.00;79.70;;;;;;5033840;28;20481;-73
2020/12/22 07:22:00;;;;;;;0.45;0.10;;;12.00;80.00;;;;;;5033749;28;20038;-73
2020/12/22 07:24:27;;;;;;;0.00;0.00;;;11.90;80.00;;;;;;5033055;28;20029;-73
2020/12/22 07:26:53;;;;;;;1.30;0.20;;;12.00;79.90;;;;;;5033075;28;20032;-72
2020/12/22 07:29:19;;;;;;;0.35;0.30;;;12.00;79.70;;;;;;5033171;28;20452;-74
2020/12/22 07:31:46;;;;;;;0.00;0.00;;;12.00;79.60;;;;;;5033161;28;20044;-74
2020/12/22 07:34:12;;;;;;;0.10;0.10;;;12.00;79.30;;;;;;5033043;28;20469;-74
2020/12/22 07:36:38;;;;;;;0.47;0.47;;;12.00;79.10;;;;;;5032924;28;20071;-73
2020/12/22 07:39:31;;;;;;;0.10;0.08;;;12.00;78.70;;;;;;5033177;28;20629;-74
2020/12/22 07:42:07;;;;;;;0.20;0.00;;;12.10;78.20;;;;;;5029544;28;20574;-74
2020/12/22 07:44:32;;;;;;;1.65;0.00;;;12.10;77.90;;;;;;5032864;28;20041;-76
2020/12/22 07:46:58;;;;;;;0.63;0.10;;;12.10;77.70;;;;;;5032754;28;20393;-74
2020/12/22 07:49:24;;;;;;;0.82;0.10;;;12.10;77.80;;;;;;5032898;28;20033;-73
2020/12/22 07:51:50;;;;;;;0.03;0.03;;;12.20;77.60;;;;;;5015057;28;20308;-76
2020/12/22 07:54:16;;;;;;;0.68;0.10;;;12.20;77.40;;;;;;5032836;28;20532;-73
2020/12/22 07:56:44;;;;;;;0.00;0.00;;;12.20;77.30;;;;;;5032776;28;20477;-74
2020/12/22 07:59:11;;;;;;;0.05;0.00;;;12.20;77.00;;;;;;5032646;28;20044;-74
2020/12/22 08:01:39;;;;;;;0.17;0.10;;;12.30;76.50;;;;;;5032423;28;20041;-75
2020/12/22 08:04:15;;;;;;;0.30;0.10;;;12.30;76.40;;;;;;5014983;28;20038;-74
2020/12/22 08:06:54;;;;;;;0.30;0.20;;;12.40;76.20;;;;;;5032735;28;20079;-74
2020/12/22 08:09:46;;;;;;;0.20;0.10;;;12.30;76.30;;;;;;5032587;28;20032;-74
2020/12/22 08:12:11;;;;;;;0.40;0.20;;;12.30;76.50;;;;;;5027923;28;20091;-73
2020/12/22 08:14:42;;;;;;;3.13;1.05;;;12.30;77.10;;;;;;5032763;28;20033;-75
2020/12/22 08:17:16;;;;;;;0.30;0.30;;;12.40;77.10;;;;;;5014715;28;20079;-76
2020/12/22 08:19:43;;;;;;;0.75;0.38;;;12.40;76.60;;;;;;5032607;28;20428;-77
2020/12/22 08:22:13;;;;;;;1.52;0.28;;;12.50;76.50;;;;;;5032656;28;20108;-77
2020/12/22 08:24:39;;;;;;;0.93;0.25;;;12.40;76.70;;;;;;5032364;28;20025;-78
2020/12/22 08:27:05;;;;;;;0.10;0.10;;;12.40;76.80;;;;;;5032433;28;20079;-77
2020/12/22 08:29:30;;;;;;;0.20;0.10;;;12.40;76.80;;;;;;5032474;28;20079;-74
2020/12/22 08:32:01;;;;;;;3.55;0.57;;;12.40;76.90;;;;;;5032355;28;20025;-74
2020/12/22 08:34:28;;;;;;;0.57;0.10;;;12.40;76.80;;;;;;5032434;28;20026;-74
2020/12/22 08:36:54;;;;;;;0.35;0.15;;;12.40;76.70;;;;;;5032360;28;20408;-74
2020/12/22 08:39:26;;;;;;;1.05;0.38;;;12.50;76.70;;;;;;5032258;28;20036;-76
2020/12/22 08:41:54;;;;;;;0.40;0.10;;;12.50;76.70;;;;;;5032497;28;20061;-74
2020/12/22 08:44:20;;;;;;;0.43;0.20;;;12.50;76.60;;;;;;5032322;28;20033;-74
2020/12/22 08:46:47;;;;;;;0.90;0.35;;;12.40;76.80;;;;;;5032365;28;20026;-74
2020/12/22 08:49:16;;;;;;;0.80;0.20;;;12.40;77.20;;;;;;5032397;28;20033;-75
2020/12/22 08:51:44;;;;;;;0.10;0.10;;;12.50;77.60;;;;;;5032243;28;20022;-74
2020/12/22 08:54:10;;;;;;;0.00;0.00;;;12.50;77.70;;;;;;5032334;28;20025;-74
2020/12/22 08:56:38;;;;;;;0.28;0.10;;;12.50;77.70;;;;;;5032336;28;20032;-74
2020/12/22 08:59:06;;;;;;;0.00;0.00;;;12.40;78.50;;;;;;5032032;28;20021;-74
2020/12/22 09:01:49;;;;;;;0.20;0.20;;;12.40;77.60;;;;;;5032065;28;20037;-74
2020/12/22 09:04:15;;;;;;;1.98;0.10;;;12.50;78.00;;;;;;5032042;28;20064;-74
2020/12/22 09:06:46;;;;;;;0.25;0.10;;;12.50;77.70;;;;;;5031983;28;20018;-73
2020/12/22 09:09:17;;;;;;;0.20;0.00;;;12.60;77.20;;;;;;5032482;28;20420;-74
2020/12/22 09:11:46;;;;;;;0.00;0.00;;;12.50;77.00;;;;;;5035633;28;20393;-75
2020/12/22 09:14:17;;;;;;;0.30;0.20;;;12.50;76.60;;;;;;5035900;28;20096;-75
2020/12/22 09:16:46;;;;;;;0.05;0.05;;;12.60;76.60;;;;;;5035492;28;20151;-75
2020/12/22 09:19:12;;;;;;;0.30;0.10;;;12.60;75.80;;;;;;5035648;28;20018;-74
2020/12/22 09:21:38;;;;;;;1.55;0.10;;;12.60;75.70;;;;;;5035600;28;20083;-74
2020/12/22 09:24:04;;;;;;;0.22;0.00;;;12.60;75.20;;;;;;5035362;28;20033;-74
2020/12/22 09:26:30;;;;;;;0.10;0.10;;;12.60;74.90;;;;;;5035585;28;20100;-75
2020/12/22 09:28:55;;;;;;;0.20;0.10;;;12.60;74.60;;;;;;5035275;28;20160;-75
2020/12/22 09:31:25;;;;;;;0.32;0.10;;;12.60;74.20;;;;;;5035430;28;20049;-76
2020/12/22 09:33:51;;;;;;;0.20;0.10;;;12.70;74.50;;;;;;5035177;28;20426;-74
2020/12/22 09:36:16;;;;;;;0.38;0.10;;;12.70;74.30;;;;;;5037119;28;20056;-75
2020/12/22 09:38:42;;;;;;;0.10;0.10;;;12.70;74.20;;;;;;5035488;28;20105;-76
2020/12/22 09:41:08;;;;;;;1.92;0.50;;;12.70;73.90;;;;;;5017588;28;20029;-76
2020/12/22 09:43:33;;;;;;;0.00;0.00;;;12.70;74.70;;;;;;5035138;28;20030;-74
2020/12/22 09:45:59;;;;;;;0.30;0.00;;;12.70;75.10;;;;;;5035112;28;20021;-74
2020/12/22 09:48:24;;;;;;;0.40;0.20;;;12.70;74.30;;;;;;5035215;28;20033;-74
2020/12/22 09:50:50;;;;;;;0.17;0.10;;;12.80;73.90;;;;;;5035143;28;20026;-75
2020/12/22 09:53:15;;;;;;;0.13;0.03;;;12.80;73.80;;;;;;5035128;28;20036;-74
2020/12/22 09:55:41;;;;;;;0.10;0.10;;;12.80;73.50;;;;;;5034895;28;20393;-75
2020/12/22 09:58:06;;;;;;;0.13;0.10;;;12.80;73.60;;;;;;5034917;28;20025;-74
2020/12/22 10:00:32;;;;;;;0.10;0.10;;;12.80;73.40;;;;;;5034787;28;20527;-76
2020/12/22 10:02:57;;;;;;;0.10;0.10;;;13.00;73.10;;;;;;5034500;28;20436;-74
2020/12/22 10:05:23;;;;;;;0.10;0.10;;;13.10;72.50;;;;;;5033921;28;20060;-76
2020/12/22 10:07:49;;;;;;;0.15;0.15;;;13.10;72.80;;;;;;5034430;28;20034;-74
2020/12/22 10:10:14;;;;;;;0.10;0.10;;;13.00;73.60;;;;;;5034598;28;20025;-73
2020/12/22 10:12:40;;;;;;;2.72;0.20;;;13.00;73.30;;;;;;5033970;28;20052;-74
2020/12/22 10:15:05;;;;;;;0.10;0.10;;;13.00;73.70;;;;;;5033769;28;20037;-72
2020/12/22 10:17:31;;;;;;;0.32;0.30;;;12.90;73.90;;;;;;5034672;28;20025;-72
2020/12/22 10:19:57;;;;;;;0.10;0.10;;;12.90;73.70;;;;;;5034181;28;20031;-73
2020/12/22 10:22:22;;;;;;;0.20;0.10;;;13.00;73.60;;;;;;5034314;28;20517;-73
2020/12/22 10:24:48;;;;;;;0.00;0.00;;;13.00;73.40;;;;;;5034385;28;20116;-73
2020/12/22 10:27:13;;;;;;;0.50;0.20;;;13.00;73.40;;;;;;5034364;28;20481;-73
2020/12/22 10:29:39;;;;;;;0.40;0.20;;;13.00;73.70;;;;;;5016644;28;20045;-72
2020/12/22 10:32:04;;;;;;;0.35;0.20;;;13.00;74.10;;;;;;5034252;28;20067;-73
2020/12/22 10:34:30;;;;;;;0.25;0.20;;;13.00;74.30;;;;;;5034239;28;20029;-73
2020/12/22 10:36:56;;;;;;;0.10;0.10;;;12.90;74.20;;;;;;5033928;28;20030;-73
2020/12/22 10:39:22;;;;;;;0.52;0.20;;;13.00;74.30;;;;;;5033901;28;20017;-73
2020/12/22 10:41:48;;;;;;;0.20;0.10;;;13.00;74.10;;;;;;5034092;28;20033;-73
2020/12/22 10:44:13;;;;;;;1.20;0.35;;;13.00;74.00;;;;;;5033898;28;20049;-73
2020/12/22 10:46:39;;;;;;;0.35;0.17;;;13.00;74.50;;;;;;5016078;28;20391;-73
2020/12/22 10:49:04;;;;;;;0.28;0.10;;;13.00;74.60;;;;;;5033940;28;20026;-76
2020/12/22 10:51:31;;;;;;;0.20;0.13;;;13.00;74.80;;;;;;5033860;28;20026;-74
2020/12/22 10:53:57;;;;;;;0.00;0.00;;;13.00;74.90;;;;;;5033719;28;20073;-73
2020/12/22 10:56:23;;;;;;;0.77;0.20;;;13.00;75.30;;;;;;5033663;28;20052;-73
2020/12/22 10:58:48;;;;;;;0.65;0.30;;;13.00;74.80;;;;;;5033557;28;20065;-74
2020/12/22 11:01:17;;;;;;;0.05;0.05;;;13.00;75.80;;;;;;5033472;28;20026;-72
2020/12/22 11:03:43;;;;;;;0.95;0.35;;;13.00;74.90;;;;;;5015438;28;20033;-74
2020/12/22 11:06:19;;;;;;;0.20;0.20;;;13.00;75.00;;;;;;5033424;28;20100;-74
2020/12/22 11:08:45;;;;;;;4.43;3.28;;;13.00;74.70;;;;;;5033405;28;20466;-74
2020/12/22 11:11:11;;;;;;;0.60;0.17;;;13.00;74.40;;;;;;5033481;28;20390;-77
2020/12/22 11:13:36;;;;;;;0.20;0.10;;;13.00;74.50;;;;;;5033186;28;20036;-76
2020/12/22 11:16:04;;;;;;;0.40;0.20;;;13.00;75.30;;;;;;5033152;28;20385;-74
2020/12/22 11:18:30;;;;;;;1.45;0.22;;;13.10;75.70;;;;;;5033125;28;20075;-75
2020/12/22 11:20:56;;;;;;;0.68;0.20;;;13.00;75.60;;;;;;5033278;28;20101;-74
2020/12/22 11:23:21;;;;;;;1.40;0.20;;;13.00;76.50;;;;;;5033242;28;20040;-74
2020/12/22 11:25:47;;;;;;;0.20;0.20;;;13.00;76.40;;;;;;5033138;28;20018;-74
2020/12/22 11:28:13;;;;;;;0.47;0.20;;;13.00;77.20;;;;;;5015588;28;20120;-73
2020/12/22 11:30:38;;;;;;;0.57;0.20;;;12.90;77.40;;;;;;5033210;28;20021;-73
2020/12/22 11:33:04;;;;;;;0.47;0.30;;;12.80;78.20;;;;;;5032624;28;20052;-74
2020/12/22 11:35:30;;;;;;;0.90;0.20;;;12.80;78.90;;;;;;5033195;28;20030;-74
2020/12/22 11:37:56;;;;;;;0.22;0.10;;;12.60;79.40;;;;;;5033089;28;20437;-73
2020/12/22 11:40:22;;;;;;;1.75;0.20;;;12.70;80.00;;;;;;5032957;28;20485;-73
2020/12/22 11:42:48;;;;;;;0.20;0.10;;;12.60;80.40;;;;;;5033056;28;20052;-74
2020/12/22 11:45:13;;;;;;;0.10;0.10;;;12.60;80.70;;;;;;5032927;28;20409;-74
2020/12/22 11:47:40;;;;;;;1.35;0.10;;;12.60;80.90;;;;;;5032887;28;20033;-73
2020/12/22 11:50:05;;;;;;;1.75;0.10;;;12.60;80.30;;;;;;5032967;28;20045;-74
2020/12/22 11:52:31;;;;;;;1.27;0.17;;;12.60;80.90;;;;;;5032911;28;20478;-73
2020/12/22 11:54:57;;;;;;;0.20;0.20;;;12.60;81.70;;;;;;5032722;28;20139;-73
2020/12/22 11:57:22;;;;;;;0.20;0.20;;;12.50;82.40;;;;;;5032846;28;20477;-73
2020/12/22 11:59:48;;;;;;;0.17;0.10;;;12.50;82.40;;;;;;5032757;28;20029;-73
2020/12/22 12:02:13;;;;;;;0.80;0.25;;;12.50;82.50;;;;;;5032569;28;20077;-73
2020/12/22 12:04:39;;;;;;;0.55;0.20;;;12.50;82.10;;;;;;5032611;28;20083;-73
2020/12/22 12:07:05;;;;;;;1.20;0.40;;;12.50;82.90;;;;;;5032772;28;20056;-73
2020/12/22 12:09:31;;;;;;;0.20;0.20;;;12.40;83.90;;;;;;5032867;28;20026;-73
2020/12/22 12:11:56;;;;;;;0.15;0.13;;;12.40;84.70;;;;;;5032501;28;20024;-75
2020/12/22 12:14:22;;;;;;;1.17;0.10;;;12.50;85.00;;;;;;5032948;28;20096;-74
2020/12/22 12:16:48;;;;;;;0.10;0.10;;;12.50;84.70;;;;;;5032400;28;20454;-73
2020/12/22 12:19:15;;;;;;;0.30;0.20;;;12.50;84.70;;;;;;5032710;28;20101;-73
2020/12/22 12:21:41;;;;;;;0.10;0.10;;;12.40;84.70;;;;;;5014449;28;20025;-73
2020/12/22 12:24:07;;;;;;;0.20;0.08;;;12.40;84.70;;;;;;5032158;28;20543;-73
2020/12/22 12:26:33;;;;;;;0.65;0.10;;;12.40;84.50;;;;;;5032294;28;20028;-73
2020/12/22 12:28:59;;;;;;;0.17;0.10;;;12.40;85.40;;;;;;5014422;28;20026;-72
2020/12/22 12:31:27;;;;;;;0.80;0.10;;;12.40;85.10;;;;;;5032239;28;20509;-74
2020/12/22 12:33:53;;;;;;;0.25;0.25;;;12.40;85.50;;;;;;5032261;28;20064;-72
2020/12/22 12:36:18;;;;;;;0.10;0.10;;;12.40;85.80;;;;;;5032503;28;20018;-72
2020/12/22 12:38:44;;;;;;;0.25;0.20;;;12.50;86.10;;;;;;5032861;28;20030;-73
2020/12/22 12:41:11;;;;;;;0.20;0.10;;;12.50;85.30;;;;;;5032335;28;20105;-74
2020/12/22 12:43:38;;;;;;;0.17;0.10;;;12.50;85.40;;;;;;5032144;28;20102;-74
2020/12/22 12:46:08;;;;;;;0.30;0.10;;;12.50;85.80;;;;;;5036013;28;20494;-73
2020/12/22 12:48:34;;;;;;;0.75;0.17;;;12.40;85.70;;;;;;5036235;28;20071;-72